sensor_id;sensor_type;location;lat;lon;timestamp;P1;durP1;ratioP1;P2;durP2;ratioP2
75655;SDS011;64252;51.094;13.714;2023-07-13T00:00:41;2.85;;;1.10;;
75655;SDS011;64252;51.094;13.714;2023-07-13T00:03:07;2.97;;;0.98;;
75655;SDS011;64252;51.094;13.714;2023-07-13T00:05:33;3.25;;;1.08;;
75655;SDS011;64252;51.094;13.714;2023-07-13T00:07:59;2.63;;;1.00;;
75655;SDS011;64252;51.094;13.714;2023-07-13T00:10:25;3.25;;;1.15;;
75655;SDS011;64252;51.094;13.714;2023-07-13T00:12:51;4.07;;;1.40;;
75655;SDS011;64252;51.094;13.714;2023-07-13T00:15:21;3.25;;;1.23;;
75655;SDS011;64252;51.094;13.714;2023-07-13T00:17:52;2.78;;;1.20;;
75655;SDS011;64252;51.094;13.714;2023-07-13T00:20:20;2.28;;;0.88;;
75655;SDS011;64252;51.094;13.714;2023-07-13T00:22:48;3.10;;;1.23;;
75655;SDS011;64252;51.094;13.714;2023-07-13T00:25:14;4.72;;;1.10;;
75655;SDS011;64252;51.094;13.714;2023-07-13T00:27:41;3.10;;;1.17;;
75655;SDS011;64252;51.094;13.714;2023-07-13T00:30:09;2.65;;;0.93;;
75655;SDS011;64252;51.094;13.714;2023-07-13T00:32:36;2.75;;;1.10;;
75655;SDS011;64252;51.094;13.714;2023-07-13T00:35:03;2.70;;;1.02;;
75655;SDS011;64252;51.094;13.714;2023-07-13T00:37:30;5.13;;;1.23;;
75655;SDS011;64252;51.094;13.714;2023-07-13T00:39:57;2.30;;;1.20;;
75655;SDS011;64252;51.094;13.714;2023-07-13T00:42:23;2.42;;;1.10;;
75655;SDS011;64252;51.094;13.714;2023-07-13T00:47:42;4.60;;;1.45;;
75655;SDS011;64252;51.094;13.714;2023-07-13T00:50:09;2.88;;;1.10;;
75655;SDS011;64252;51.094;13.714;2023-07-13T00:52:38;3.40;;;1.20;;
75655;SDS011;64252;51.094;13.714;2023-07-13T00:57:32;3.80;;;1.50;;
75655;SDS011;64252;51.094;13.714;2023-07-13T00:59:59;3.22;;;1.15;;
75655;SDS011;64252;51.094;13.714;2023-07-13T01:02:38;3.13;;;1.40;;
75655;SDS011;64252;51.094;13.714;2023-07-13T01:05:11;7.07;;;2.03;;
75655;SDS011;64252;51.094;13.714;2023-07-13T01:07:43;3.92;;;1.20;;
75655;SDS011;64252;51.094;13.714;2023-07-13T01:10:10;3.90;;;1.33;;
75655;SDS011;64252;51.094;13.714;2023-07-13T01:12:37;3.38;;;1.30;;
75655;SDS011;64252;51.094;13.714;2023-07-13T01:15:03;2.47;;;1.20;;
75655;SDS011;64252;51.094;13.714;2023-07-13T01:17:31;3.67;;;1.45;;
75655;SDS011;64252;51.094;13.714;2023-07-13T01:19:59;3.75;;;1.40;;
75655;SDS011;64252;51.094;13.714;2023-07-13T01:22:25;5.13;;;1.50;;
75655;SDS011;64252;51.094;13.714;2023-07-13T01:24:52;4.13;;;1.60;;
75655;SDS011;64252;51.094;13.714;2023-07-13T01:27:23;4.57;;;2.00;;
75655;SDS011;64252;51.094;13.714;2023-07-13T01:29:51;4.68;;;1.88;;
75655;SDS011;64252;51.094;13.714;2023-07-13T01:32:19;4.35;;;1.60;;
75655;SDS011;64252;51.094;13.714;2023-07-13T01:34:50;3.88;;;1.50;;
75655;SDS011;64252;51.094;13.714;2023-07-13T01:37:19;3.70;;;1.20;;
75655;SDS011;64252;51.094;13.714;2023-07-13T01:39:46;3.70;;;1.63;;
75655;SDS011;64252;51.094;13.714;2023-07-13T01:42:13;5.55;;;1.65;;
75655;SDS011;64252;51.094;13.714;2023-07-13T01:44:40;3.50;;;1.50;;
75655;SDS011;64252;51.094;13.714;2023-07-13T01:47:06;3.40;;;1.70;;
75655;SDS011;64252;51.094;13.714;2023-07-13T01:49:32;4.47;;;1.60;;
75655;SDS011;64252;51.094;13.714;2023-07-13T01:51:58;4.00;;;1.80;;
75655;SDS011;64252;51.094;13.714;2023-07-13T01:54:23;3.88;;;1.60;;
75655;SDS011;64252;51.094;13.714;2023-07-13T01:56:49;4.45;;;1.52;;
75655;SDS011;64252;51.094;13.714;2023-07-13T01:59:15;3.95;;;1.60;;
75655;SDS011;64252;51.094;13.714;2023-07-13T02:01:41;3.03;;;1.38;;
75655;SDS011;64252;51.094;13.714;2023-07-13T02:04:07;3.35;;;1.42;;
75655;SDS011;64252;51.094;13.714;2023-07-13T02:06:33;4.35;;;1.60;;
75655;SDS011;64252;51.094;13.714;2023-07-13T02:08:59;7.07;;;1.60;;
75655;SDS011;64252;51.094;13.714;2023-07-13T02:11:25;4.05;;;1.55;;
75655;SDS011;64252;51.094;13.714;2023-07-13T02:13:58;5.15;;;1.42;;
75655;SDS011;64252;51.094;13.714;2023-07-13T02:16:26;3.55;;;1.63;;
75655;SDS011;64252;51.094;13.714;2023-07-13T02:18:51;4.57;;;1.80;;
75655;SDS011;64252;51.094;13.714;2023-07-13T02:21:17;3.75;;;1.80;;
75655;SDS011;64252;51.094;13.714;2023-07-13T02:23:43;4.60;;;2.13;;
75655;SDS011;64252;51.094;13.714;2023-07-13T02:26:09;3.78;;;1.73;;
75655;SDS011;64252;51.094;13.714;2023-07-13T02:28:35;4.40;;;1.92;;
75655;SDS011;64252;51.094;13.714;2023-07-13T02:31:11;5.38;;;1.73;;
75655;SDS011;64252;51.094;13.714;2023-07-13T02:33:39;4.55;;;1.60;;
75655;SDS011;64252;51.094;13.714;2023-07-13T02:36:05;3.92;;;2.00;;
75655;SDS011;64252;51.094;13.714;2023-07-13T02:38:34;4.25;;;2.05;;
75655;SDS011;64252;51.094;13.714;2023-07-13T02:41:03;5.05;;;2.20;;
75655;SDS011;64252;51.094;13.714;2023-07-13T02:43:30;4.72;;;1.75;;
75655;SDS011;64252;51.094;13.714;2023-07-13T02:45:56;3.53;;;1.75;;
75655;SDS011;64252;51.094;13.714;2023-07-13T02:48:21;4.75;;;1.70;;
75655;SDS011;64252;51.094;13.714;2023-07-13T02:50:47;4.47;;;1.92;;
75655;SDS011;64252;51.094;13.714;2023-07-13T02:53:13;4.70;;;1.80;;
75655;SDS011;64252;51.094;13.714;2023-07-13T02:55:39;4.15;;;1.70;;
75655;SDS011;64252;51.094;13.714;2023-07-13T02:58:06;4.53;;;1.70;;
75655;SDS011;64252;51.094;13.714;2023-07-13T03:00:32;3.45;;;1.85;;
75655;SDS011;64252;51.094;13.714;2023-07-13T03:02:58;4.20;;;1.70;;
75655;SDS011;64252;51.094;13.714;2023-07-13T03:05:24;3.42;;;1.70;;
75655;SDS011;64252;51.094;13.714;2023-07-13T03:07:50;5.43;;;1.75;;
75655;SDS011;64252;51.094;13.714;2023-07-13T03:10:17;4.07;;;1.77;;
75655;SDS011;64252;51.094;13.714;2023-07-13T03:12:47;4.93;;;1.92;;
75655;SDS011;64252;51.094;13.714;2023-07-13T03:15:22;3.92;;;1.80;;
75655;SDS011;64252;51.094;13.714;2023-07-13T03:17:49;4.65;;;1.83;;
75655;SDS011;64252;51.094;13.714;2023-07-13T03:20:15;4.32;;;2.13;;
75655;SDS011;64252;51.094;13.714;2023-07-13T03:22:41;5.32;;;2.13;;
75655;SDS011;64252;51.094;13.714;2023-07-13T03:25:08;3.30;;;1.67;;
75655;SDS011;64252;51.094;13.714;2023-07-13T03:27:34;4.22;;;1.83;;
75655;SDS011;64252;51.094;13.714;2023-07-13T03:30:01;6.03;;;2.00;;
75655;SDS011;64252;51.094;13.714;2023-07-13T03:32:27;4.10;;;1.73;;
75655;SDS011;64252;51.094;13.714;2023-07-13T03:34:53;4.38;;;1.90;;
75655;SDS011;64252;51.094;13.714;2023-07-13T03:37:19;4.15;;;1.73;;
75655;SDS011;64252;51.094;13.714;2023-07-13T03:39:45;3.58;;;1.70;;
75655;SDS011;64252;51.094;13.714;2023-07-13T03:42:11;5.00;;;1.95;;
75655;SDS011;64252;51.094;13.714;2023-07-13T03:44:38;3.95;;;2.10;;
75655;SDS011;64252;51.094;13.714;2023-07-13T03:47:05;4.72;;;1.73;;
75655;SDS011;64252;51.094;13.714;2023-07-13T03:49:31;3.58;;;1.70;;
75655;SDS011;64252;51.094;13.714;2023-07-13T03:51:57;10.48;;;2.05;;
75655;SDS011;64252;51.094;13.714;2023-07-13T03:54:24;4.18;;;2.05;;
75655;SDS011;64252;51.094;13.714;2023-07-13T03:56:50;4.10;;;1.90;;
75655;SDS011;64252;51.094;13.714;2023-07-13T03:59:17;4.78;;;2.08;;
75655;SDS011;64252;51.094;13.714;2023-07-13T04:01:44;4.63;;;2.10;;
75655;SDS011;64252;51.094;13.714;2023-07-13T04:04:11;3.45;;;1.70;;
75655;SDS011;64252;51.094;13.714;2023-07-13T04:06:37;4.53;;;1.73;;
75655;SDS011;64252;51.094;13.714;2023-07-13T04:09:04;5.95;;;1.90;;
75655;SDS011;64252;51.094;13.714;2023-07-13T04:11:33;3.72;;;1.70;;
75655;SDS011;64252;51.094;13.714;2023-07-13T04:14:01;8.68;;;1.85;;
75655;SDS011;64252;51.094;13.714;2023-07-13T04:16:27;4.32;;;1.50;;
75655;SDS011;64252;51.094;13.714;2023-07-13T04:18:54;4.13;;;2.10;;
75655;SDS011;64252;51.094;13.714;2023-07-13T04:21:25;4.05;;;1.63;;
75655;SDS011;64252;51.094;13.714;2023-07-13T04:23:52;5.60;;;1.83;;
75655;SDS011;64252;51.094;13.714;2023-07-13T04:26:18;5.47;;;2.05;;
75655;SDS011;64252;51.094;13.714;2023-07-13T04:28:46;6.78;;;1.80;;
75655;SDS011;64252;51.094;13.714;2023-07-13T04:31:13;2.78;;;1.40;;
75655;SDS011;64252;51.094;13.714;2023-07-13T04:33:39;3.80;;;1.52;;
75655;SDS011;64252;51.094;13.714;2023-07-13T04:36:05;3.80;;;1.80;;
75655;SDS011;64252;51.094;13.714;2023-07-13T04:38:32;3.58;;;1.73;;
75655;SDS011;64252;51.094;13.714;2023-07-13T04:40:59;3.83;;;1.55;;
75655;SDS011;64252;51.094;13.714;2023-07-13T04:43:27;4.88;;;2.53;;
75655;SDS011;64252;51.094;13.714;2023-07-13T04:45:54;4.80;;;2.45;;
75655;SDS011;64252;51.094;13.714;2023-07-13T04:48:20;7.47;;;2.33;;
75655;SDS011;64252;51.094;13.714;2023-07-13T04:50:47;7.88;;;2.50;;
75655;SDS011;64252;51.094;13.714;2023-07-13T04:53:13;3.72;;;1.98;;
75655;SDS011;64252;51.094;13.714;2023-07-13T04:55:39;4.90;;;1.88;;
75655;SDS011;64252;51.094;13.714;2023-07-13T04:58:06;5.30;;;2.03;;
75655;SDS011;64252;51.094;13.714;2023-07-13T05:00:32;2.83;;;1.50;;
75655;SDS011;64252;51.094;13.714;2023-07-13T05:02:58;6.43;;;1.90;;
75655;SDS011;64252;51.094;13.714;2023-07-13T05:05:25;3.63;;;1.60;;
75655;SDS011;64252;51.094;13.714;2023-07-13T05:07:52;4.57;;;1.60;;
75655;SDS011;64252;51.094;13.714;2023-07-13T05:10:19;2.75;;;1.35;;
75655;SDS011;64252;51.094;13.714;2023-07-13T05:12:45;5.63;;;1.33;;
75655;SDS011;64252;51.094;13.714;2023-07-13T05:15:11;5.00;;;1.90;;
75655;SDS011;64252;51.094;13.714;2023-07-13T05:17:37;4.97;;;1.52;;
75655;SDS011;64252;51.094;13.714;2023-07-13T05:20:07;4.32;;;2.00;;
75655;SDS011;64252;51.094;13.714;2023-07-13T05:22:34;4.15;;;1.33;;
75655;SDS011;64252;51.094;13.714;2023-07-13T05:25:01;3.90;;;1.70;;
75655;SDS011;64252;51.094;13.714;2023-07-13T05:27:28;6.80;;;1.80;;
75655;SDS011;64252;51.094;13.714;2023-07-13T05:29:54;3.83;;;1.48;;
75655;SDS011;64252;51.094;13.714;2023-07-13T05:32:20;4.40;;;1.80;;
75655;SDS011;64252;51.094;13.714;2023-07-13T05:34:45;5.20;;;1.92;;
75655;SDS011;64252;51.094;13.714;2023-07-13T05:37:11;5.95;;;1.92;;
75655;SDS011;64252;51.094;13.714;2023-07-13T05:39:37;4.63;;;1.80;;
75655;SDS011;64252;51.094;13.714;2023-07-13T05:42:03;4.93;;;1.70;;
75655;SDS011;64252;51.094;13.714;2023-07-13T05:44:29;3.03;;;1.40;;
75655;SDS011;64252;51.094;13.714;2023-07-13T05:46:55;4.07;;;1.42;;
75655;SDS011;64252;51.094;13.714;2023-07-13T05:49:22;4.13;;;1.30;;
75655;SDS011;64252;51.094;13.714;2023-07-13T05:51:48;4.65;;;1.42;;
75655;SDS011;64252;51.094;13.714;2023-07-13T05:54:14;5.03;;;1.40;;
75655;SDS011;64252;51.094;13.714;2023-07-13T05:56:40;5.00;;;1.80;;
75655;SDS011;64252;51.094;13.714;2023-07-13T05:59:06;4.47;;;1.67;;
75655;SDS011;64252;51.094;13.714;2023-07-13T06:01:32;3.65;;;1.20;;
75655;SDS011;64252;51.094;13.714;2023-07-13T06:03:59;3.70;;;1.20;;
75655;SDS011;64252;51.094;13.714;2023-07-13T06:06:25;4.13;;;1.17;;
75655;SDS011;64252;51.094;13.714;2023-07-13T06:08:51;3.70;;;1.02;;
75655;SDS011;64252;51.094;13.714;2023-07-13T06:11:21;5.70;;;1.40;;
75655;SDS011;64252;51.094;13.714;2023-07-13T06:13:51;3.42;;;1.30;;
75655;SDS011;64252;51.094;13.714;2023-07-13T06:16:17;5.00;;;1.30;;
75655;SDS011;64252;51.094;13.714;2023-07-13T06:18:43;5.50;;;1.13;;
75655;SDS011;64252;51.094;13.714;2023-07-13T06:21:09;3.92;;;1.13;;
75655;SDS011;64252;51.094;13.714;2023-07-13T06:23:39;5.28;;;1.42;;
75655;SDS011;64252;51.094;13.714;2023-07-13T06:26:06;7.25;;;1.15;;
75655;SDS011;64252;51.094;13.714;2023-07-13T06:28:32;3.13;;;1.27;;
75655;SDS011;64252;51.094;13.714;2023-07-13T06:30:59;8.00;;;1.40;;
75655;SDS011;64252;51.094;13.714;2023-07-13T06:33:25;3.15;;;1.42;;
75655;SDS011;64252;51.094;13.714;2023-07-13T06:35:52;5.93;;;1.60;;
75655;SDS011;64252;51.094;13.714;2023-07-13T06:38:18;3.22;;;1.33;;
75655;SDS011;64252;51.094;13.714;2023-07-13T06:40:45;3.95;;;1.63;;
75655;SDS011;64252;51.094;13.714;2023-07-13T06:43:10;6.20;;;1.90;;
75655;SDS011;64252;51.094;13.714;2023-07-13T06:45:44;6.90;;;2.10;;
75655;SDS011;64252;51.094;13.714;2023-07-13T06:48:13;2.90;;;1.20;;
75655;SDS011;64252;51.094;13.714;2023-07-13T06:50:40;4.55;;;1.40;;
75655;SDS011;64252;51.094;13.714;2023-07-13T06:53:07;6.38;;;1.50;;
75655;SDS011;64252;51.094;13.714;2023-07-13T06:55:33;3.50;;;1.55;;
75655;SDS011;64252;51.094;13.714;2023-07-13T06:57:58;5.07;;;1.48;;
75655;SDS011;64252;51.094;13.714;2023-07-13T07:00:24;5.90;;;1.52;;
75655;SDS011;64252;51.094;13.714;2023-07-13T07:02:49;3.72;;;1.35;;
75655;SDS011;64252;51.094;13.714;2023-07-13T07:05:15;4.28;;;1.23;;
75655;SDS011;64252;51.094;13.714;2023-07-13T07:07:41;4.13;;;1.40;;
75655;SDS011;64252;51.094;13.714;2023-07-13T07:10:07;4.22;;;1.50;;
75655;SDS011;64252;51.094;13.714;2023-07-13T07:12:33;3.45;;;1.33;;
75655;SDS011;64252;51.094;13.714;2023-07-13T07:14:59;4.50;;;1.30;;
75655;SDS011;64252;51.094;13.714;2023-07-13T07:17:25;3.88;;;1.27;;
75655;SDS011;64252;51.094;13.714;2023-07-13T07:19:51;5.30;;;2.60;;
75655;SDS011;64252;51.094;13.714;2023-07-13T07:22:19;4.60;;;1.70;;
75655;SDS011;64252;51.094;13.714;2023-07-13T07:24:46;3.75;;;1.70;;
75655;SDS011;64252;51.094;13.714;2023-07-13T07:27:12;4.28;;;1.27;;
75655;SDS011;64252;51.094;13.714;2023-07-13T07:29:37;4.15;;;1.20;;
75655;SDS011;64252;51.094;13.714;2023-07-13T07:32:03;5.18;;;1.30;;
75655;SDS011;64252;51.094;13.714;2023-07-13T07:34:30;4.32;;;1.10;;
75655;SDS011;64252;51.094;13.714;2023-07-13T07:37:01;4.40;;;1.33;;
75655;SDS011;64252;51.094;13.714;2023-07-13T07:39:28;4.88;;;1.20;;
75655;SDS011;64252;51.094;13.714;2023-07-13T07:41:54;4.22;;;1.42;;
75655;SDS011;64252;51.094;13.714;2023-07-13T07:44:20;4.18;;;1.30;;
75655;SDS011;64252;51.094;13.714;2023-07-13T07:46:46;3.78;;;1.45;;
75655;SDS011;64252;51.094;13.714;2023-07-13T07:49:12;4.43;;;1.30;;
75655;SDS011;64252;51.094;13.714;2023-07-13T07:51:38;3.28;;;0.98;;
75655;SDS011;64252;51.094;13.714;2023-07-13T07:54:04;2.55;;;0.90;;
75655;SDS011;64252;51.094;13.714;2023-07-13T07:56:31;3.20;;;1.00;;
75655;SDS011;64252;51.094;13.714;2023-07-13T07:58:57;3.53;;;1.00;;
75655;SDS011;64252;51.094;13.714;2023-07-13T08:01:22;4.72;;;1.00;;
75655;SDS011;64252;51.094;13.714;2023-07-13T08:03:48;4.20;;;1.00;;
75655;SDS011;64252;51.094;13.714;2023-07-13T08:06:14;3.45;;;1.30;;
75655;SDS011;64252;51.094;13.714;2023-07-13T08:08:40;4.07;;;1.15;;
75655;SDS011;64252;51.094;13.714;2023-07-13T08:11:06;3.60;;;1.05;;
75655;SDS011;64252;51.094;13.714;2023-07-13T08:13:33;3.95;;;1.10;;
75655;SDS011;64252;51.094;13.714;2023-07-13T08:15:59;3.35;;;1.13;;
75655;SDS011;64252;51.094;13.714;2023-07-13T08:18:26;3.45;;;1.20;;
75655;SDS011;64252;51.094;13.714;2023-07-13T08:20:53;5.80;;;1.30;;
75655;SDS011;64252;51.094;13.714;2023-07-13T08:23:21;3.88;;;1.15;;
75655;SDS011;64252;51.094;13.714;2023-07-13T08:25:51;3.97;;;1.08;;
75655;SDS011;64252;51.094;13.714;2023-07-13T08:28:19;3.80;;;1.35;;
75655;SDS011;64252;51.094;13.714;2023-07-13T08:30:45;6.55;;;1.33;;
75655;SDS011;64252;51.094;13.714;2023-07-13T08:33:17;3.97;;;1.33;;
75655;SDS011;64252;51.094;13.714;2023-07-13T08:35:47;4.25;;;1.13;;
75655;SDS011;64252;51.094;13.714;2023-07-13T08:38:14;3.85;;;1.33;;
75655;SDS011;64252;51.094;13.714;2023-07-13T08:40:42;5.07;;;1.25;;
75655;SDS011;64252;51.094;13.714;2023-07-13T08:43:13;2.60;;;1.08;;
75655;SDS011;64252;51.094;13.714;2023-07-13T08:48:25;3.03;;;1.10;;
75655;SDS011;64252;51.094;13.714;2023-07-13T08:54:00;3.05;;;1.00;;
75655;SDS011;64252;51.094;13.714;2023-07-13T08:58:57;2.83;;;1.00;;
75655;SDS011;64252;51.094;13.714;2023-07-13T09:07:42;4.03;;;1.15;;
75655;SDS011;64252;51.094;13.714;2023-07-13T09:10:31;4.68;;;1.40;;
75655;SDS011;64252;51.094;13.714;2023-07-13T09:15:43;3.80;;;1.25;;
75655;SDS011;64252;51.094;13.714;2023-07-13T09:18:13;3.55;;;1.00;;
75655;SDS011;64252;51.094;13.714;2023-07-13T09:23:43;4.97;;;1.10;;
75655;SDS011;64252;51.094;13.714;2023-07-13T09:26:14;3.22;;;1.10;;
75655;SDS011;64252;51.094;13.714;2023-07-13T09:28:43;3.63;;;1.10;;
75655;SDS011;64252;51.094;13.714;2023-07-13T09:33:39;6.65;;;1.70;;
75655;SDS011;64252;51.094;13.714;2023-07-13T09:36:15;4.68;;;1.70;;
75655;SDS011;64252;51.094;13.714;2023-07-13T09:39:14;6.60;;;1.60;;
75655;SDS011;64252;51.094;13.714;2023-07-13T09:44:15;4.05;;;1.50;;
75655;SDS011;64252;51.094;13.714;2023-07-13T09:46:44;4.25;;;1.40;;
75655;SDS011;64252;51.094;13.714;2023-07-13T09:49:15;4.82;;;1.20;;
75655;SDS011;64252;51.094;13.714;2023-07-13T09:51:41;3.67;;;1.27;;
75655;SDS011;64252;51.094;13.714;2023-07-13T09:54:18;3.33;;;1.30;;
75655;SDS011;64252;51.094;13.714;2023-07-13T09:56:45;3.85;;;1.10;;
75655;SDS011;64252;51.094;13.714;2023-07-13T09:59:18;5.50;;;1.13;;
75655;SDS011;64252;51.094;13.714;2023-07-13T10:01:46;4.72;;;1.27;;
75655;SDS011;64252;51.094;13.714;2023-07-13T10:04:14;4.38;;;1.23;;
75655;SDS011;64252;51.094;13.714;2023-07-13T10:06:44;2.38;;;0.88;;
75655;SDS011;64252;51.094;13.714;2023-07-13T10:09:14;3.05;;;1.00;;
75655;SDS011;64252;51.094;13.714;2023-07-13T10:11:42;6.18;;;1.00;;
75655;SDS011;64252;51.094;13.714;2023-07-13T10:14:11;3.92;;;1.10;;
75655;SDS011;64252;51.094;13.714;2023-07-13T10:16:40;7.50;;;1.60;;
75655;SDS011;64252;51.094;13.714;2023-07-13T10:19:16;6.00;;;1.52;;
75655;SDS011;64252;51.094;13.714;2023-07-13T10:22:00;4.05;;;1.30;;
75655;SDS011;64252;51.094;13.714;2023-07-13T10:24:31;4.18;;;1.13;;
75655;SDS011;64252;51.094;13.714;2023-07-13T10:29:55;3.42;;;1.10;;
75655;SDS011;64252;51.094;13.714;2023-07-13T10:32:36;3.03;;;0.90;;
75655;SDS011;64252;51.094;13.714;2023-07-13T10:35:02;2.53;;;0.93;;
75655;SDS011;64252;51.094;13.714;2023-07-13T10:37:41;3.97;;;1.02;;
75655;SDS011;64252;51.094;13.714;2023-07-13T10:40:22;2.80;;;1.02;;
75655;SDS011;64252;51.094;13.714;2023-07-13T10:42:52;4.07;;;0.98;;
75655;SDS011;64252;51.094;13.714;2023-07-13T10:45:21;3.92;;;1.20;;
75655;SDS011;64252;51.094;13.714;2023-07-13T10:47:49;4.20;;;1.15;;
75655;SDS011;64252;51.094;13.714;2023-07-13T10:50:22;3.15;;;1.15;;
75655;SDS011;64252;51.094;13.714;2023-07-13T10:53:01;10.60;;;1.10;;
75655;SDS011;64252;51.094;13.714;2023-07-13T10:58:19;4.88;;;1.00;;
75655;SDS011;64252;51.094;13.714;2023-07-13T11:03:34;4.32;;;1.00;;
75655;SDS011;64252;51.094;13.714;2023-07-13T11:06:10;3.85;;;1.08;;
75655;SDS011;64252;51.094;13.714;2023-07-13T11:08:38;3.05;;;1.05;;
75655;SDS011;64252;51.094;13.714;2023-07-13T11:21:16;5.55;;;1.20;;
75655;SDS011;64252;51.094;13.714;2023-07-13T11:23:44;3.38;;;1.15;;
75655;SDS011;64252;51.094;13.714;2023-07-13T11:31:43;5.13;;;1.23;;
75655;SDS011;64252;51.094;13.714;2023-07-13T11:34:20;3.70;;;1.10;;
75655;SDS011;64252;51.094;13.714;2023-07-13T11:36:52;3.00;;;1.08;;
75655;SDS011;64252;51.094;13.714;2023-07-13T11:39:37;25.80;;;4.10;;
75655;SDS011;64252;51.094;13.714;2023-07-13T11:42:10;6.07;;;1.50;;
75655;SDS011;64252;51.094;13.714;2023-07-13T11:44:49;3.92;;;1.10;;
75655;SDS011;64252;51.094;13.714;2023-07-13T11:47:20;3.13;;;0.98;;
75655;SDS011;64252;51.094;13.714;2023-07-13T11:49:48;5.68;;;1.10;;
75655;SDS011;64252;51.094;13.714;2023-07-13T11:52:20;3.42;;;1.10;;
75655;SDS011;64252;51.094;13.714;2023-07-13T11:54:51;3.75;;;1.10;;
75655;SDS011;64252;51.094;13.714;2023-07-13T11:59:53;2.75;;;0.90;;
75655;SDS011;64252;51.094;13.714;2023-07-13T12:02:34;2.85;;;1.05;;
75655;SDS011;64252;51.094;13.714;2023-07-13T12:05:04;2.83;;;0.80;;
75655;SDS011;64252;51.094;13.714;2023-07-13T12:07:32;6.15;;;1.00;;
75655;SDS011;64252;51.094;13.714;2023-07-13T12:10:02;3.85;;;1.10;;
75655;SDS011;64252;51.094;13.714;2023-07-13T12:12:36;3.75;;;1.13;;
75655;SDS011;64252;51.094;13.714;2023-07-13T12:15:06;3.90;;;0.93;;
75655;SDS011;64252;51.094;13.714;2023-07-13T12:17:33;3.30;;;1.08;;
75655;SDS011;64252;51.094;13.714;2023-07-13T12:20:03;4.00;;;1.35;;
75655;SDS011;64252;51.094;13.714;2023-07-13T12:22:45;3.53;;;0.90;;
75655;SDS011;64252;51.094;13.714;2023-07-13T12:25:12;2.60;;;0.90;;
75655;SDS011;64252;51.094;13.714;2023-07-13T12:27:39;2.72;;;1.05;;
75655;SDS011;64252;51.094;13.714;2023-07-13T12:30:15;3.65;;;1.08;;
75655;SDS011;64252;51.094;13.714;2023-07-13T12:33:01;3.25;;;1.00;;
75655;SDS011;64252;51.094;13.714;2023-07-13T12:35:39;2.85;;;1.10;;
75655;SDS011;64252;51.094;13.714;2023-07-13T12:38:10;4.15;;;0.95;;
75655;SDS011;64252;51.094;13.714;2023-07-13T12:40:38;5.03;;;1.15;;
75655;SDS011;64252;51.094;13.714;2023-07-13T12:43:10;4.05;;;1.05;;
75655;SDS011;64252;51.094;13.714;2023-07-13T12:45:40;2.65;;;1.05;;
75655;SDS011;64252;51.094;13.714;2023-07-13T12:48:38;3.20;;;0.95;;
75655;SDS011;64252;51.094;13.714;2023-07-13T12:51:11;4.18;;;1.13;;
75655;SDS011;64252;51.094;13.714;2023-07-13T12:53:40;4.15;;;0.95;;
75655;SDS011;64252;51.094;13.714;2023-07-13T12:56:08;4.03;;;1.15;;
75655;SDS011;64252;51.094;13.714;2023-07-13T13:01:09;4.22;;;1.15;;
75655;SDS011;64252;51.094;13.714;2023-07-13T13:03:38;6.47;;;1.00;;
75655;SDS011;64252;51.094;13.714;2023-07-13T13:08:48;2.05;;;0.70;;
75655;SDS011;64252;51.094;13.714;2023-07-13T13:11:21;3.15;;;0.95;;
75655;SDS011;64252;51.094;13.714;2023-07-13T13:13:49;3.20;;;1.00;;
75655;SDS011;64252;51.094;13.714;2023-07-13T13:19:22;2.97;;;0.80;;
75655;SDS011;64252;51.094;13.714;2023-07-13T13:21:52;3.25;;;1.00;;
75655;SDS011;64252;51.094;13.714;2023-07-13T13:24:21;4.22;;;0.80;;
75655;SDS011;64252;51.094;13.714;2023-07-13T13:26:49;2.88;;;0.90;;
75655;SDS011;64252;51.094;13.714;2023-07-13T13:29:17;4.35;;;1.00;;
75655;SDS011;64252;51.094;13.714;2023-07-13T13:31:45;2.40;;;1.00;;
75655;SDS011;64252;51.094;13.714;2023-07-13T13:34:12;3.95;;;1.10;;
75655;SDS011;64252;51.094;13.714;2023-07-13T13:36:40;4.15;;;1.10;;
75655;SDS011;64252;51.094;13.714;2023-07-13T13:41:48;3.78;;;0.82;;
75655;SDS011;64252;51.094;13.714;2023-07-13T13:44:15;5.78;;;0.98;;
75655;SDS011;64252;51.094;13.714;2023-07-13T13:46:42;2.47;;;0.77;;
75655;SDS011;64252;51.094;13.714;2023-07-13T13:49:17;2.85;;;0.82;;
75655;SDS011;64252;51.094;13.714;2023-07-13T13:51:44;4.80;;;0.85;;
75655;SDS011;64252;51.094;13.714;2023-07-13T13:54:16;2.92;;;1.10;;
75655;SDS011;64252;51.094;13.714;2023-07-13T13:56:43;4.03;;;1.08;;
75655;SDS011;64252;51.094;13.714;2023-07-13T13:59:11;3.30;;;0.85;;
75655;SDS011;64252;51.094;13.714;2023-07-13T14:01:38;7.38;;;1.13;;
75655;SDS011;64252;51.094;13.714;2023-07-13T14:04:05;4.00;;;1.02;;
75655;SDS011;64252;51.094;13.714;2023-07-13T14:06:32;3.88;;;1.38;;
75655;SDS011;64252;51.094;13.714;2023-07-13T14:09:01;3.45;;;0.90;;
75655;SDS011;64252;51.094;13.714;2023-07-13T14:11:27;4.22;;;1.02;;
75655;SDS011;64252;51.094;13.714;2023-07-13T14:13:57;4.30;;;1.33;;
75655;SDS011;64252;51.094;13.714;2023-07-13T14:16:31;3.92;;;0.88;;
75655;SDS011;64252;51.094;13.714;2023-07-13T14:18:59;3.33;;;1.10;;
75655;SDS011;64252;51.094;13.714;2023-07-13T14:21:26;3.78;;;0.90;;
75655;SDS011;64252;51.094;13.714;2023-07-13T14:23:53;3.00;;;1.00;;
75655;SDS011;64252;51.094;13.714;2023-07-13T14:26:23;6.50;;;1.17;;
75655;SDS011;64252;51.094;13.714;2023-07-13T14:28:51;2.10;;;0.90;;
75655;SDS011;64252;51.094;13.714;2023-07-13T14:31:22;3.97;;;1.00;;
75655;SDS011;64252;51.094;13.714;2023-07-13T14:33:49;3.40;;;1.20;;
75655;SDS011;64252;51.094;13.714;2023-07-13T14:36:23;4.78;;;1.30;;
75655;SDS011;64252;51.094;13.714;2023-07-13T14:38:53;5.70;;;0.98;;
75655;SDS011;64252;51.094;13.714;2023-07-13T14:41:19;2.90;;;0.90;;
75655;SDS011;64252;51.094;13.714;2023-07-13T14:43:46;4.13;;;1.38;;
75655;SDS011;64252;51.094;13.714;2023-07-13T14:46:30;3.28;;;0.88;;
75655;SDS011;64252;51.094;13.714;2023-07-13T14:49:01;5.03;;;1.08;;
75655;SDS011;64252;51.094;13.714;2023-07-13T14:51:31;4.00;;;1.00;;
75655;SDS011;64252;51.094;13.714;2023-07-13T14:54:00;3.78;;;0.98;;
75655;SDS011;64252;51.094;13.714;2023-07-13T14:56:29;4.32;;;1.00;;
75655;SDS011;64252;51.094;13.714;2023-07-13T14:58:55;4.60;;;1.10;;
75655;SDS011;64252;51.094;13.714;2023-07-13T15:01:21;4.30;;;1.33;;
75655;SDS011;64252;51.094;13.714;2023-07-13T15:03:49;5.00;;;0.93;;
75655;SDS011;64252;51.094;13.714;2023-07-13T15:06:16;3.78;;;0.90;;
75655;SDS011;64252;51.094;13.714;2023-07-13T15:08:45;4.10;;;0.88;;
75655;SDS011;64252;51.094;13.714;2023-07-13T15:11:11;4.55;;;0.82;;
75655;SDS011;64252;51.094;13.714;2023-07-13T15:13:38;4.53;;;1.00;;
75655;SDS011;64252;51.094;13.714;2023-07-13T15:16:08;2.83;;;0.82;;
75655;SDS011;64252;51.094;13.714;2023-07-13T15:18:45;2.20;;;0.80;;
75655;SDS011;64252;51.094;13.714;2023-07-13T15:21:11;3.65;;;0.73;;
75655;SDS011;64252;51.094;13.714;2023-07-13T15:23:43;2.53;;;0.77;;
75655;SDS011;64252;51.094;13.714;2023-07-13T15:26:14;2.42;;;0.75;;
75655;SDS011;64252;51.094;13.714;2023-07-13T15:28:41;2.47;;;0.90;;
75655;SDS011;64252;51.094;13.714;2023-07-13T15:31:15;2.42;;;0.60;;
75655;SDS011;64252;51.094;13.714;2023-07-13T15:33:44;2.47;;;0.70;;
75655;SDS011;64252;51.094;13.714;2023-07-13T15:36:10;2.38;;;0.82;;
75655;SDS011;64252;51.094;13.714;2023-07-13T15:38:37;3.53;;;0.80;;
75655;SDS011;64252;51.094;13.714;2023-07-13T15:41:26;4.47;;;0.70;;
75655;SDS011;64252;51.094;13.714;2023-07-13T15:43:54;2.08;;;0.70;;
75655;SDS011;64252;51.094;13.714;2023-07-13T15:46:25;3.28;;;0.70;;
75655;SDS011;64252;51.094;13.714;2023-07-13T15:48:53;2.97;;;0.55;;